Time;durP1;ratioP1;P1;durP2;ratioP2;P2;SDS_P1;SDS_P2;PMS_P1;PMS_P2;Temp;Humidity;BMP_temperature;BMP_pressure;BME280_temperature;BME280_humidity;BME280_pressure;Samples;Min_cycle;Max_cycle;Signal;HPM_P1;HPM_P2
2021/12/04 00:02:36;;;;;;;0.40;0.40;;;;;;;6.51;93.17;99122.09;8341160;28;20038;-61
2021/12/04 00:06:39;;;;;;;2.03;0.47;;;;;;;6.48;93.28;99110.78;8342295;28;20146;-61
2021/12/04 00:10:40;;;;;;;0.73;0.50;;;;;;;6.48;93.30;99106.28;8343618;28;20029;-61
2021/12/04 00:14:41;;;;;;;1.10;0.50;;;;;;;6.51;93.11;99100.63;8341532;28;20036;-61
2021/12/04 00:18:41;;;;;;;0.50;0.50;;;;;;;6.47;93.39;99093.88;8342128;28;20068;-61
2021/12/04 00:22:42;;;;;;;0.88;0.50;;;;;;;6.48;93.77;99084.81;8331333;28;20029;-61
2021/12/04 00:26:44;;;;;;;0.95;0.50;;;;;;;6.52;93.79;99094.25;8308934;28;20042;-61
2021/12/04 00:30:46;;;;;;;0.50;0.50;;;;;;;6.51;93.32;99084.50;8314107;28;20377;-61
2021/12/04 00:34:53;;;;;;;0.40;0.40;;;;;;;6.56;92.87;99079.50;8341731;28;20037;-61
2021/12/04 00:43:24;;;;;;;0.25;0.25;;;;;;;6.58;93.08;99074.84;8321376;28;20041;-61
2021/12/04 00:49:07;;;;;;;0.50;0.32;;;;;;;6.58;92.99;99074.00;8324082;28;20140;-61
2021/12/04 00:51:53;;;;;;;0.50;0.40;;;;;;;6.58;93.14;99069.47;8332976;28;20041;-61
2021/12/04 00:55:53;;;;;;;1.05;0.68;;;;;;;6.54;93.29;99061.88;8329462;28;20052;-61
2021/12/04 00:59:53;;;;;;;0.50;0.47;;;;;;;6.44;95.36;99056.59;8341971;28;20037;-61
2021/12/04 01:03:54;;;;;;;0.85;0.35;;;;;;;6.40;98.32;99054.34;8341863;28;20037;-61
2021/12/04 01:07:54;;;;;;;0.30;0.30;;;;;;;6.24;99.92;99057.69;8330841;28;20097;-61
2021/12/04 01:11:55;;;;;;;0.50;0.30;;;;;;;6.15;100.00;99055.88;8324681;28;20037;-61
2021/12/04 01:15:56;;;;;;;0.38;0.38;;;;;;;6.08;100.00;99044.88;8340162;28;20374;-60
2021/12/04 01:19:56;;;;;;;0.57;0.50;;;;;;;5.97;100.00;99047.78;8341884;28;20034;-60
2021/12/04 01:23:56;;;;;;;1.08;0.80;;;;;;;5.96;100.00;99040.75;8338704;28;20033;-60
2021/12/04 01:27:57;;;;;;;1.75;0.40;;;;;;;5.93;100.00;99045.53;8341119;28;20029;-60
2021/12/04 01:31:57;;;;;;;0.70;0.50;;;;;;;5.92;100.00;99033.13;8340301;28;20084;-60
2021/12/04 01:35:58;;;;;;;1.00;0.63;;;;;;;5.91;100.00;99031.44;8341293;28;20041;-60
2021/12/04 01:39:58;;;;;;;1.05;0.60;;;;;;;5.91;100.00;99026.06;8341257;28;20050;-60
2021/12/04 01:44:00;;;;;;;0.30;0.30;;;;;;;5.87;100.00;99016.63;8339509;28;20033;-60
2021/12/04 01:48:02;;;;;;;0.65;0.50;;;;;;;5.83;100.00;99009.88;8321894;28;20068;-60
2021/12/04 01:52:03;;;;;;;1.15;0.70;;;;;;;5.85;100.00;99010.56;8339915;28;20107;-60
2021/12/04 01:56:04;;;;;;;0.88;0.55;;;;;;;5.86;100.00;98998.88;8340316;28;20376;-60
2021/12/04 02:00:06;;;;;;;0.68;0.50;;;;;;;5.88;100.00;98996.84;8340056;28;20095;-60
2021/12/04 02:04:06;;;;;;;0.63;0.52;;;;;;;5.85;100.00;98989.97;8340147;28;20576;-59
2021/12/04 02:08:08;;;;;;;3.28;0.70;;;;;;;5.88;100.00;98983.44;8339173;28;20392;-59
2021/12/04 02:12:09;;;;;;;1.48;0.88;;;;;;;5.88;100.00;98986.13;8338277;28;20033;-60
2021/12/04 02:16:18;;;;;;;1.45;1.10;;;;;;;5.97;100.00;98990.59;8338686;28;20045;-60
2021/12/04 02:20:21;;;;;;;1.48;0.80;;;;;;;5.97;100.00;98983.41;8306438;28;20049;-59
2021/12/04 02:24:22;;;;;;;1.48;1.20;;;;;;;6.03;100.00;98980.13;8312725;28;20038;-60
2021/12/04 02:28:22;;;;;;;1.30;1.20;;;;;;;6.05;100.00;98980.00;8312924;28;20038;-60
2021/12/04 02:32:23;;;;;;;1.75;1.05;;;;;;;6.03;100.00;98965.03;8330742;28;20044;-59
2021/12/04 02:36:23;;;;;;;1.33;1.15;;;;;;;6.07;100.00;98956.53;8332687;28;20069;-59
2021/12/04 02:40:24;;;;;;;1.80;1.60;;;;;;;6.03;100.00;98934.53;8331380;28;20111;-58
2021/12/04 02:44:35;;;;;;;1.50;1.23;;;;;;;6.05;100.00;98937.06;8321622;28;20073;-59
2021/12/04 02:48:36;;;;;;;1.67;1.58;;;;;;;6.00;100.00;98929.47;8311700;28;20069;-62
2021/12/04 02:52:37;;;;;;;2.30;1.48;;;;;;;5.94;100.00;98934.59;8310817;28;20045;-62
2021/12/04 02:56:42;;;;;;;1.70;1.52;;;;;;;5.89;100.00;98936.91;8315203;28;20400;-62
2021/12/04 03:00:48;;;;;;;2.13;1.70;;;;;;;5.89;100.00;98921.63;8328621;28;20037;-62
2021/12/04 03:04:52;;;;;;;2.55;2.35;;;;;;;5.85;100.00;98908.66;8340730;28;20400;-62
2021/12/04 03:08:52;;;;;;;3.40;2.72;;;;;;;5.78;100.00;98907.56;8320549;28;20030;-62
2021/12/04 03:12:54;;;;;;;3.33;3.00;;;;;;;5.78;100.00;98896.84;8312033;28;20557;-62
2021/12/04 03:16:54;;;;;;;3.95;3.28;;;;;;;5.77;100.00;98895.16;8311003;28;20136;-62
2021/12/04 03:20:56;;;;;;;3.97;2.88;;;;;;;5.69;100.00;98892.38;8311513;28;20057;-62
2021/12/04 03:24:57;;;;;;;4.70;3.80;;;;;;;5.65;100.00;98885.63;8311034;28;20064;-62
2021/12/04 03:29:01;;;;;;;6.32;4.53;;;;;;;5.64;100.00;98870.53;8310609;28;20428;-62
2021/12/04 03:41:42;;;;;;;7.28;4.90;;;;;;;5.61;100.00;98857.41;8360080;28;20041;-62
2021/12/04 03:45:45;;;;;;;7.57;5.22;;;;;;;5.58;100.00;98847.03;8358941;28;20029;-62
2021/12/04 03:49:47;;;;;;;6.82;4.63;;;;;;;5.56;100.00;98839.13;8358306;28;20492;-62
2021/12/04 03:53:49;;;;;;;6.18;4.50;;;;;;;5.56;100.00;98832.94;8358728;28;20033;-62
2021/12/04 03:57:50;;;;;;;6.28;4.00;;;;;;;5.53;100.00;98839.44;8335135;28;20038;-62
2021/12/04 04:01:50;;;;;;;5.68;3.95;;;;;;;5.54;100.00;98829.53;8330672;28;20579;-62
2021/12/04 04:05:51;;;;;;;4.18;2.95;;;;;;;5.55;100.00;98836.59;8342783;28;20049;-62
2021/12/04 04:09:51;;;;;;;3.35;2.58;;;;;;;5.57;100.00;98830.09;8342529;28;20033;-62
2021/12/04 04:13:51;;;;;;;3.90;2.85;;;;;;;5.58;100.00;98825.59;8345361;28;20037;-62
2021/12/04 04:17:52;;;;;;;3.45;2.70;;;;;;;5.60;100.00;98828.94;8341662;28;20044;-62
2021/12/04 04:21:56;;;;;;;4.38;2.30;;;;;;;5.60;100.00;98834.31;8341584;28;20040;-62
2021/12/04 04:25:57;;;;;;;3.72;2.25;;;;;;;5.60;100.00;98828.94;8341331;28;20036;-62
2021/12/04 04:29:57;;;;;;;2.17;1.67;;;;;;;5.62;100.00;98822.44;8342167;28;20496;-62
2021/12/04 04:34:02;;;;;;;4.70;2.10;;;;;;;5.59;100.00;98821.91;8339165;28;20041;-62
2021/12/04 04:38:14;;;;;;;3.35;2.38;;;;;;;5.58;100.00;98813.00;8340650;28;20037;-62
2021/12/04 05:13:08;;;;;;;1.58;1.42;;;;;;;5.59;100.00;98785.25;8352399;28;20499;-62
2021/12/04 05:18:06;;;;;;;1.42;1.27;;;;;;;5.61;100.00;98779.69;8351667;28;20120;-62
2021/12/04 05:21:14;;;;;;;2.45;1.73;;;;;;;5.60;100.00;98786.06;8351728;28;20034;-62
2021/12/04 05:25:14;;;;;;;1.60;1.10;;;;;;;5.61;100.00;98777.88;8352233;28;20053;-62
2021/12/04 05:29:15;;;;;;;2.08;1.33;;;;;;;5.61;100.00;98769.81;8351889;28;20510;-62
2021/12/04 05:33:15;;;;;;;1.23;1.05;;;;;;;5.58;100.00;98769.31;8351668;28;20037;-62
2021/12/04 05:37:16;;;;;;;1.30;1.08;;;;;;;5.62;100.00;98778.72;8337314;28;20034;-62
2021/12/04 05:41:16;;;;;;;1.60;1.02;;;;;;;5.68;100.00;98780.78;8335216;28;20128;-62
2021/12/04 05:45:21;;;;;;;1.85;1.20;;;;;;;5.65;100.00;98779.25;8318811;28;20048;-62
2021/12/04 05:50:15;;;;;;;;;;;;;;;5.68;100.00;98767.38;8319042;28;20056;-62
2021/12/04 05:57:53;;;;;;;1.27;1.13;;;;;;;5.68;100.00;98770.06;8317056;28;22106;-62
2021/12/04 06:01:54;;;;;;;2.10;1.35;;;;;;;5.69;100.00;98774.44;8332591;28;20407;-62
2021/12/04 06:05:54;;;;;;;2.03;1.45;;;;;;;5.69;100.00;98779.78;8350169;28;20092;-62
2021/12/04 06:09:55;;;;;;;1.80;1.48;;;;;;;5.71;100.00;98777.81;8346470;28;20033;-62
2021/12/04 06:13:56;;;;;;;2.75;1.50;;;;;;;5.70;100.00;98774.28;8286675;28;20038;-62
2021/12/04 06:17:57;;;;;;;5.18;1.88;;;;;;;5.68;100.00;98762.03;8277659;28;20058;-62
2021/12/04 06:22:57;;;;;;;2.08;1.65;;;;;;;5.68;100.00;98756.66;8263092;28;20034;-62
2021/12/04 06:26:18;;;;;;;1.48;1.33;;;;;;;5.71;100.00;98759.03;8284034;28;20516;-62
2021/12/04 06:30:19;;;;;;;1.75;1.60;;;;;;;5.72;100.00;98758.03;8297001;28;20402;-63
2021/12/04 06:34:19;;;;;;;2.88;1.55;;;;;;;5.72;100.00;98763.41;8321341;28;20042;-62
2021/12/04 06:38:20;;;;;;;3.60;1.40;;;;;;;5.74;100.00;98761.41;8307254;28;20044;-62
2021/12/04 06:42:21;;;;;;;1.80;1.30;;;;;;;5.71;100.00;98759.88;8299608;28;20038;-63
2021/12/04 06:46:22;;;;;;;2.83;1.80;;;;;;;5.70;100.00;98749.28;8294458;28;20045;-63
2021/12/04 06:50:32;;;;;;;2.45;1.70;;;;;;;5.67;100.00;98750.47;8294679;28;20026;-62
2021/12/04 06:54:37;;;;;;;2.08;1.55;;;;;;;5.66;100.00;98762.19;8294158;28;20103;-62
2021/12/04 06:58:39;;;;;;;1.67;1.58;;;;;;;5.66;100.00;98767.53;8294599;28;20353;-62
2021/12/04 07:02:39;;;;;;;5.65;1.33;;;;;;;5.66;100.00;98766.69;8315605;28;20120;-62
2021/12/04 07:06:40;;;;;;;2.85;1.40;;;;;;;5.66;100.00;98764.00;8326774;28;20033;-62
2021/12/04 07:10:41;;;;;;;6.40;1.50;;;;;;;5.67;100.00;98765.69;8324670;28;20048;-62
2021/12/04 07:14:41;;;;;;;4.10;1.38;;;;;;;5.69;100.00;98774.44;8325632;28;20052;-63
2021/12/04 07:18:42;;;;;;;4.32;1.58;;;;;;;5.69;100.00;98763.72;8325267;28;20441;-63
2021/12/04 07:22:43;;;;;;;3.80;1.60;;;;;;;5.69;100.00;98769.06;8324878;28;20033;-63
2021/12/04 07:26:43;;;;;;;2.42;1.90;;;;;;;5.68;100.00;98756.66;8311210;28;20049;-63
2021/12/04 07:30:44;;;;;;;2.22;1.73;;;;;;;5.67;100.00;98765.69;8311712;28;20488;-63
2021/12/04 07:34:44;;;;;;;2.70;2.03;;;;;;;5.67;100.00;98765.69;8325536;28;20033;-63
2021/12/04 07:38:44;;;;;;;2.08;1.85;;;;;;;5.67;100.00;98765.69;8324996;28;20052;-63
2021/12/04 07:42:45;;;;;;;2.83;1.90;;;;;;;5.66;100.00;98764.00;8325566;28;20388;-63
2021/12/04 07:46:46;;;;;;;6.97;2.00;;;;;;;5.64;100.00;98757.94;8314441;28;20136;-63
2021/12/04 07:50:46;;;;;;;3.72;1.85;;;;;;;5.62;100.00;98752.75;8323938;28;20025;-63
2021/12/04 07:54:48;;;;;;;3.10;1.80;;;;;;;5.61;100.00;98755.56;8325655;28;20112;-63
2021/12/04 07:58:49;;;;;;;3.58;2.20;;;;;;;5.66;100.00;98761.34;8312065;28;20417;-63
2021/12/04 08:02:50;;;;;;;6.00;4.47;;;;;;;5.69;100.00;98766.38;8305886;28;20395;-63
2021/12/04 08:06:53;;;;;;;14.15;8.13;;;;;;;5.68;100.00;98768.22;8294557;28;20121;-63
2021/12/04 08:10:54;;;;;;;15.68;7.68;;;;;;;5.68;100.00;98762.03;8320129;28;20033;-63
2021/12/04 08:14:54;;;;;;;27.38;12.73;;;;;;;5.70;100.00;98765.38;8315664;28;20120;-63
2021/12/04 08:18:54;;;;;;;15.32;7.45;;;;;;;5.75;100.00;98763.94;8314359;28;20129;-63
2021/12/04 08:22:55;;;;;;;3.25;2.72;;;;;;;5.76;100.00;98748.69;8304050;28;20127;-63
2021/12/04 08:26:56;;;;;;;4.18;3.60;;;;;;;5.77;100.00;98750.38;8298373;28;20042;-63
2021/12/04 08:30:56;;;;;;;4.88;3.83;;;;;;;5.79;100.00;98746.56;8293668;28;20515;-63
2021/12/04 08:34:57;;;;;;;4.05;3.40;;;;;;;5.89;100.00;98743.84;8314207;28;20124;-63
2021/12/04 08:38:57;;;;;;;3.65;2.70;;;;;;;5.93;100.00;98735.31;8310303;28;20396;-63
2021/12/04 08:42:58;;;;;;;4.78;3.30;;;;;;;6.00;100.00;98732.84;8320769;28;20033;-63
2021/12/04 08:46:59;;;;;;;4.95;2.45;;;;;;;6.00;100.00;98730.16;8317613;28;20135;-63
2021/12/04 08:51:02;;;;;;;4.18;3.10;;;;;;;6.04;100.00;98739.59;8293352;28;20160;-63
2021/12/04 08:55:05;;;;;;;4.10;2.35;;;;;;;6.06;100.00;98734.09;8306268;28;20037;-63
2021/12/04 08:59:07;;;;;;;5.00;2.90;;;;;;;6.04;100.00;98739.59;8299477;28;20798;-63
2021/12/04 09:03:08;;;;;;;7.25;3.90;;;;;;;6.07;100.00;98741.94;8306369;28;20303;-63
2021/12/04 09:07:10;;;;;;;5.88;4.32;;;;;;;6.07;100.00;98743.81;8302362;28;20042;-63
2021/12/04 09:11:18;;;;;;;7.43;5.22;;;;;;;6.10;100.00;98741.63;8303102;28;20049;-63
2021/12/04 09:15:23;;;;;;;4.78;3.38;;;;;;;6.15;100.00;98733.13;8301467;28;20037;-63
2021/12/04 09:19:24;;;;;;;4.43;3.75;;;;;;;6.30;100.00;98743.13;8309449;28;20166;-63
2021/12/04 09:23:30;;;;;;;4.75;3.25;;;;;;;6.25;100.00;98740.06;8294308;28;20685;-63
2021/12/04 09:27:39;;;;;;;4.93;3.35;;;;;;;6.27;100.00;98726.50;8306013;28;20128;-63
2021/12/04 09:32:49;;;;;;;5.93;3.70;;;;;;;6.35;100.00;98719.38;8300150;28;20041;-63
2021/12/04 09:36:25;;;;;;;4.43;3.30;;;;;;;6.45;100.00;98711.19;8284231;28;20040;-63
2021/12/04 10:02:21;;;;;;;3.72;2.88;;;;;;;6.83;100.00;98681.19;8321488;28;20037;-63
2021/12/04 10:16:31;;;;;;;3.35;1.90;;;;;;;8.03;92.83;98644.53;8412169;28;20121;-63
2021/12/04 10:32:40;;;;;;;3.33;1.52;;;;;;;8.97;86.86;98602.31;8402220;28;20540;-63
2021/12/04 10:36:41;;;;;;;1.52;1.42;;;;;;;8.72;86.90;98589.19;8383988;28;20036;-63
2021/12/04 10:40:44;;;;;;;2.13;1.70;;;;;;;8.06;89.46;98579.59;8410493;28;20036;-63
2021/12/04 10:44:51;;;;;;;5.35;2.65;;;;;;;7.86;92.94;98597.16;8377194;28;20040;-63
2021/12/04 10:49:01;;;;;;;5.18;1.67;;;;;;;7.61;93.31;98603.56;8377425;28;20480;-64
2021/12/04 10:53:05;;;;;;;2.30;1.70;;;;;;;7.46;94.66;98602.56;8377105;28;20063;-64
2021/12/04 11:02:18;;;;;;;3.03;2.38;;;;;;;7.36;96.04;98568.78;8411274;28;20046;-64
2021/12/04 11:21:38;;;;;;;3.83;1.83;;;;;;;7.25;97.43;98516.22;8319501;28;20132;-63
2021/12/04 11:24:28;;;;;;;2.85;2.35;;;;;;;7.38;97.45;98494.22;8278311;28;20045;-63
2021/12/04 11:28:44;;;;;;;3.08;2.30;;;;;;;7.39;97.29;98507.50;8334968;28;20570;-64
2021/12/04 11:35:08;;;;;;;2.30;1.83;;;;;;;7.53;97.93;98482.59;8311865;28;20048;-63
2021/12/04 11:41:26;;;;;;;1.80;1.38;;;;;;;7.63;95.54;98463.59;8403208;27;20773;-64
2021/12/04 11:45:42;;;;;;;1.65;1.45;;;;;;;7.70;95.89;98457.34;8395135;27;20119;-63
2021/12/04 11:49:43;;;;;;;2.15;1.50;;;;;;;7.62;96.04;98449.28;8419277;27;20035;-63
2021/12/04 11:53:44;;;;;;;2.00;1.38;;;;;;;7.73;95.79;98443.56;8372449;27;20048;-63
2021/12/04 11:57:46;;;;;;;2.83;1.88;;;;;;;7.74;96.40;98439.84;8378231;28;20058;-63
2021/12/04 12:01:56;;;;;;;2.95;1.40;;;;;;;7.86;95.45;98430.38;8392286;27;20531;-63
2021/12/04 12:06:01;;;;;;;2.20;1.80;;;;;;;7.98;95.26;98420.91;8381497;27;20488;-63
2021/12/04 12:10:16;;;;;;;2.63;1.80;;;;;;;7.97;93.96;98421.09;8384467;28;20575;-63
2021/12/04 12:14:22;;;;;;;2.55;1.38;;;;;;;7.90;94.64;98417.44;8409448;28;20032;-63
2021/12/04 12:18:22;;;;;;;1.98;1.30;;;;;;;7.89;94.42;98419.28;8379912;28;20029;-63
2021/12/04 12:22:41;;;;;;;1.52;1.20;;;;;;;7.84;95.29;98400.13;8377161;28;20504;-64
2021/12/04 12:27:00;;;;;;;2.05;1.08;;;;;;;7.91;96.03;98390.38;8375818;28;20060;-63
2021/12/04 12:32:21;;;;;;;1.98;1.30;;;;;;;7.85;95.49;98380.31;8369841;28;20033;-63
2021/12/04 12:36:30;;;;;;;4.10;1.92;;;;;;;7.82;96.94;98391.41;8342957;28;20033;-63
2021/12/04 12:39:53;;;;;;;5.47;3.13;;;;;;;7.65;99.10;98400.53;8340973;28;20128;-63
2021/12/04 12:44:19;;;;;;;4.10;2.70;;;;;;;7.46;100.00;98400.97;8344352;28;20090;-63
2021/12/04 12:48:20;;;;;;;3.60;2.47;;;;;;;7.35;100.00;98400.50;8343743;28;20037;-63
2021/12/04 12:56:37;;;;;;;3.95;2.67;;;;;;;7.27;100.00;98417.47;8344766;27;20227;-64
2021/12/04 13:13:43;;;;;;;4.13;3.65;;;;;;;7.30;100.00;98402.84;8313268;28;20377;-63
2021/12/04 13:17:43;;;;;;;6.75;4.22;;;;;;;7.36;100.00;98392.25;8313434;28;20037;-63
2021/12/04 13:21:48;;;;;;;5.72;4.25;;;;;;;7.31;100.00;98397.31;8313217;28;20042;-63
2021/12/04 13:25:55;;;;;;;6.75;4.15;;;;;;;7.31;100.00;98383.88;8313810;28;20139;-63
2021/12/04 13:30:01;;;;;;;5.85;4.03;;;;;;;7.28;100.00;98378.84;8331002;28;20477;-63
2021/12/04 13:34:01;;;;;;;6.28;4.35;;;;;;;7.24;100.00;98385.56;8312203;28;20335;-63
2021/12/04 13:38:03;;;;;;;7.70;4.75;;;;;;;7.19;100.00;98379.88;8312433;28;20507;-63
2021/12/04 13:42:04;;;;;;;8.00;5.00;;;;;;;7.27;100.00;98369.09;8311806;28;20040;-63
2021/12/04 13:46:05;;;;;;;6.18;4.43;;;;;;;7.23;100.00;98372.31;8312237;28;20408;-63
2021/12/04 13:54:35;;;;;;;6.05;4.80;;;;;;;7.13;100.00;98383.22;8348514;28;20515;-63
2021/12/04 13:58:45;;;;;;;7.50;4.25;;;;;;;7.17;100.00;98379.19;8366378;28;20524;-63
2021/12/04 14:02:46;;;;;;;8.93;5.32;;;;;;;7.10;100.00;98377.34;8343836;28;20037;-63
2021/12/04 14:06:57;;;;;;;8.45;5.03;;;;;;;7.02;100.00;98375.53;8327401;28;20132;-63
2021/12/04 14:10:58;;;;;;;7.75;4.70;;;;;;;7.01;100.00;98392.66;8353776;28;20029;-63
2021/12/04 14:15:00;;;;;;;10.10;5.68;;;;;;;6.99;100.00;98397.38;8355332;28;20112;-63
2021/12/04 14:19:11;;;;;;;7.75;5.32;;;;;;;7.03;100.00;98409.44;8328369;28;20045;-63
2021/12/04 14:23:12;;;;;;;8.30;5.65;;;;;;;7.12;100.00;98435.31;8323193;28;20053;-63
2021/12/04 14:27:20;;;;;;;9.05;6.32;;;;;;;7.11;100.00;98444.34;8322697;28;20038;-63
2021/12/04 14:31:22;;;;;;;10.55;6.78;;;;;;;7.09;100.00;98459.81;8319477;28;20176;-63
2021/12/04 14:35:27;;;;;;;11.10;7.43;;;;;;;7.08;100.00;98459.97;8321285;28;20041;-63
2021/12/04 14:39:28;;;;;;;8.65;5.95;;;;;;;7.10;100.00;98469.53;8321288;28;20033;-63
2021/12/04 14:43:32;;;;;;;9.90;6.00;;;;;;;7.12;100.00;98461.31;8320651;28;20045;-63
2021/12/04 14:47:37;;;;;;;;;;;;;;;7.13;100.00;98458.47;8321176;28;20034;-63
2021/12/04 14:51:37;;;;;;;10.30;5.82;;;;;;;7.10;100.00;98458.78;8320806;28;19929;-63
2021/12/04 14:55:40;;;;;;;11.13;6.90;;;;;;;7.11;100.00;98471.22;8333784;28;20526;-63
2021/12/04 14:59:41;;;;;;;11.70;6.30;;;;;;;7.10;100.00;98472.22;8345219;28;20040;-63
2021/12/04 15:03:48;;;;;;;11.23;5.68;;;;;;;7.07;100.00;98486.00;8320085;28;20484;-63
2021/12/04 15:07:59;;;;;;;14.68;6.45;;;;;;;7.02;100.00;98488.34;8319929;28;20044;-63
2021/12/04 15:12:01;;;;;;;12.63;5.97;;;;;;;6.96;100.00;98499.78;8291246;28;20029;-63
2021/12/04 15:16:06;;;;;;;12.13;6.47;;;;;;;6.99;100.00;98506.66;8340974;28;20037;-62
2021/12/04 15:20:11;;;;;;;6.20;4.47;;;;;;;6.79;100.00;98519.56;8351848;28;20025;-62
2021/12/04 15:24:19;;;;;;;5.28;2.40;;;;;;;6.72;100.00;98523.91;8350204;28;20039;-62
2021/12/04 15:28:22;;;;;;;3.55;1.75;;;;;;;6.62;100.00;98539.31;8359192;28;20040;-62
2021/12/04 15:32:26;;;;;;;1.98;1.48;;;;;;;6.58;100.00;98547.84;8333975;28;20034;-62
2021/12/04 15:36:36;;;;;;;1.90;1.40;;;;;;;6.54;100.00;98554.56;8320924;28;20041;-59
2021/12/04 15:45:15;;;;;;;2.67;1.80;;;;;;;6.47;100.00;98572.31;8398836;27;20833;-57
2021/12/04 15:53:53;;;;;;;3.63;1.92;;;;;;;6.49;100.00;98576.53;8389138;27;20064;-59
2021/12/04 15:57:57;;;;;;;2.65;2.00;;;;;;;6.50;100.00;98588.97;8397349;27;20036;-59
2021/12/04 16:02:11;;;;;;;4.35;2.55;;;;;;;6.52;100.00;98588.78;8365120;28;20060;-59
2021/12/04 16:06:11;;;;;;;2.40;1.93;;;;;;;6.62;100.00;98586.81;8366094;28;20052;-59
2021/12/04 16:10:15;;;;;;;5.85;3.13;;;;;;;6.67;100.00;98596.03;8398178;27;20306;-59
2021/12/04 16:14:16;;;;;;;9.15;4.95;;;;;;;6.73;100.00;98595.38;8387693;27;20041;-58
2021/12/04 16:18:17;;;;;;;5.35;4.57;;;;;;;6.78;100.00;98606.50;8347049;28;20069;-58
2021/12/04 16:22:19;;;;;;;7.22;5.13;;;;;;;6.84;100.00;98608.53;8348093;28;20037;-58
2021/12/04 16:26:24;;;;;;;11.23;6.15;;;;;;;6.90;100.00;98604.34;8348509;28;20537;-58
2021/12/04 16:30:31;;;;;;;10.40;7.15;;;;;;;6.97;100.00;98616.94;8348283;28;20048;-58
2021/12/04 16:38:52;;;;;;;11.98;8.20;;;;;;;7.07;100.00;98616.78;8346911;28;20045;-59
2021/12/04 16:43:56;;;;;;;13.30;8.07;;;;;;;7.15;100.00;98630.25;8359643;28;20078;-59
2021/12/04 16:47:17;;;;;;;12.88;8.98;;;;;;;7.22;100.00;98634.78;8357341;28;20416;-59
2021/12/04 16:55:28;;;;;;;15.73;7.85;;;;;;;7.26;100.00;98635.31;8333963;28;20038;-58
2021/12/04 16:59:31;;;;;;;13.00;7.90;;;;;;;7.29;100.00;98651.91;8333424;28;20040;-59
2021/12/04 17:03:32;;;;;;;11.80;7.20;;;;;;;7.24;100.00;98659.66;8326908;28;20033;-59
2021/12/04 17:07:33;;;;;;;15.32;7.28;;;;;;;7.25;100.00;98666.69;8328374;28;20115;-57
2021/12/04 17:11:34;;;;;;;13.00;7.78;;;;;;;7.24;100.00;98675.78;8334173;28;20544;-59
2021/12/04 17:15:38;;;;;;;14.68;7.55;;;;;;;7.27;100.00;98686.19;8325700;28;20562;-59
2021/12/04 17:19:40;;;;;;;13.05;6.80;;;;;;;7.28;100.00;98693.25;8339662;28;20115;-59
2021/12/04 17:23:40;;;;;;;12.07;5.72;;;;;;;7.26;100.00;98695.25;8358315;28;20515;-59
2021/12/04 17:27:41;;;;;;;10.25;4.43;;;;;;;7.22;100.00;98709.19;8359570;28;20103;-59
2021/12/04 17:31:44;;;;;;;17.90;6.32;;;;;;;7.22;100.00;98704.66;8345444;28;20065;-59
2021/12/04 17:35:44;;;;;;;6.05;4.07;;;;;;;7.35;100.00;98723.81;8326352;28;20044;-60
2021/12/04 17:39:45;;;;;;;11.45;5.05;;;;;;;7.44;100.00;98725.53;8325206;28;20049;-58
2021/12/04 17:43:46;;;;;;;14.82;5.40;;;;;;;7.46;100.00;98734.28;8343263;28;20041;-59
2021/12/04 17:47:48;;;;;;;21.10;7.15;;;;;;;7.46;100.00;98728.91;8330641;28;20129;-59
2021/12/04 17:51:51;;;;;;;11.38;6.60;;;;;;;7.48;100.00;98732.25;8332286;28;20041;-58
2021/12/04 17:55:52;;;;;;;14.63;7.43;;;;;;;7.46;100.00;98734.28;8324823;28;20040;-60
2021/12/04 17:59:52;;;;;;;18.05;7.70;;;;;;;7.45;100.00;98750.56;8324129;28;20365;-59
2021/12/04 18:03:53;;;;;;;18.08;7.35;;;;;;;7.43;100.00;98758.81;8320188;28;20042;-62
2021/12/04 18:07:56;;;;;;;20.85;7.38;;;;;;;7.33;100.00;98752.72;8317056;28;20100;-62
2021/12/04 18:12:04;;;;;;;23.98;8.25;;;;;;;7.23;100.00;98762.75;8317317;28;20109;-62
2021/12/04 18:16:09;;;;;;;12.98;7.35;;;;;;;7.05;100.00;98775.44;8325659;28;20044;-62
2021/12/04 18:20:10;;;;;;;31.17;8.68;;;;;;;7.02;100.00;98778.44;8314205;28;20658;-62
2021/12/04 18:24:11;;;;;;;17.83;7.63;;;;;;;7.04;100.00;98787.19;8309559;28;20447;-62
2021/12/04 18:28:13;;;;;;;22.30;9.30;;;;;;;6.97;100.00;98794.22;8313129;28;20041;-62
2021/12/04 18:32:14;;;;;;;20.75;8.60;;;;;;;6.94;100.00;98794.53;8313641;28;20033;-62
2021/12/04 18:36:15;;;;;;;21.50;7.00;;;;;;;6.88;100.00;98789.81;8319137;28;20485;-62
2021/12/04 18:40:17;;;;;;;19.92;6.18;;;;;;;6.82;100.00;98798.50;8318610;28;20450;-62
2021/12/04 18:44:17;;;;;;;14.27;5.57;;;;;;;6.78;100.00;98818.63;8318091;28;20044;-62
2021/12/04 18:48:20;;;;;;;15.55;4.70;;;;;;;6.73;100.00;98810.19;8299501;28;20033;-62
2021/12/04 18:52:21;;;;;;;16.80;4.72;;;;;;;6.77;100.00;98806.19;8286000;28;20550;-62
2021/12/04 18:56:21;;;;;;;18.25;4.13;;;;;;;6.83;100.00;98820.84;8284799;28;20417;-62
2021/12/04 19:00:23;;;;;;;19.55;4.00;;;;;;;6.84;100.00;98828.75;8287543;28;20135;-63
2021/12/04 19:04:24;;;;;;;17.77;5.05;;;;;;;6.86;100.00;98836.63;8307204;28;20048;-62
2021/12/04 19:08:25;;;;;;;14.60;4.15;;;;;;;6.85;100.00;98841.16;8315024;28;20324;-62
2021/12/04 19:12:27;;;;;;;12.77;4.10;;;;;;;6.83;100.00;98845.84;8309951;28;20037;-62
2021/12/04 19:16:27;;;;;;;11.13;3.38;;;;;;;6.82;100.00;98852.22;8301375;28;20140;-62
2021/12/04 19:20:28;;;;;;;12.65;3.60;;;;;;;6.85;100.00;98851.91;8298281;28;20076;-62
2021/12/04 19:24:29;;;;;;;18.10;4.28;;;;;;;6.79;100.00;98859.72;8290218;28;20033;-62
2021/12/04 19:28:30;;;;;;;21.00;3.72;;;;;;;6.78;100.00;98861.59;8314905;28;20048;-62
2021/12/04 19:32:31;;;;;;;16.15;3.55;;;;;;;6.88;100.00;98872.22;8318583;28;20041;-62
2021/12/04 19:48:15;;;;;;;16.45;5.28;;;;;;;6.87;100.00;98874.06;8323477;28;20029;-62
2021/12/04 19:57:54;;;;;;;18.70;5.10;;;;;;;7.14;100.00;98868.50;8377936;28;20049;-62
2021/12/04 20:08:02;;;;;;;19.35;5.55;;;;;;;7.19;98.46;98855.44;8375775;27;20864;-62
2021/12/04 20:14:56;;;;;;;12.02;4.53;;;;;;;7.22;97.60;98865.03;8355185;28;20039;-62
2021/12/04 20:19:05;;;;;;;14.35;5.28;;;;;;;7.26;96.32;98875.31;8412152;28;20024;-62
2021/12/04 20:23:07;;;;;;;19.85;4.97;;;;;;;7.15;96.59;98875.59;8414383;28;20399;-62
2021/12/04 20:27:11;;;;;;;11.38;4.22;;;;;;;6.99;97.01;98878.19;8412416;28;20686;-62
2021/12/04 20:32:54;;;;;;;22.60;4.70;;;;;;;6.87;97.50;98892.03;8415048;28;20039;-62
2021/12/04 21:11:38;;;;;;;15.35;5.38;;;;;;;6.04;100.00;98893.31;8402692;28;20131;-62
2021/12/04 21:38:46;;;;;;;20.05;5.43;;;;;;;6.00;100.00;98915.22;8352042;28;20557;-63
2021/12/04 21:49:37;;;;;;;12.57;3.53;;;;;;;5.77;100.00;98943.41;8359488;28;20088;-62
2021/12/04 21:53:38;;;;;;;11.93;3.38;;;;;;;5.70;100.00;98942.31;8362723;28;20043;-63
2021/12/04 21:58:08;;;;;;;8.27;3.63;;;;;;;5.62;100.00;98939.53;8350372;28;20033;-63
2021/12/04 22:10:45;;;;;;;15.30;3.00;;;;;;;5.53;100.00;98945.78;8366307;28;20044;-62
2021/12/04 22:55:42;;;;;;;15.07;3.88;;;;;;;6.14;97.58;98997.88;8349560;28;20047;-63
2021/12/04 22:58:16;;;;;;;11.57;3.63;;;;;;;6.28;96.81;98994.66;8370872;28;20052;-63
2021/12/04 23:02:21;;;;;;;11.00;2.85;;;;;;;6.37;95.92;98999.13;8372823;28;20036;-63
2021/12/04 23:11:22;;;;;;;9.40;2.72;;;;;;;6.45;95.62;98999.22;8336277;28;20040;-63
2021/12/04 23:15:17;;;;;;;15.00;2.13;;;;;;;6.52;95.56;99007.53;8357253;28;20078;-63
2021/12/04 23:32:26;;;;;;;12.05;2.03;;;;;;;6.79;95.39;98994.00;8356274;28;20039;-63
2021/12/04 23:36:46;;;;;;;9.07;1.85;;;;;;;6.83;94.88;98993.53;8365371;28;20032;-63
2021/12/04 23:46:44;;;;;;;13.15;2.00;;;;;;;6.79;94.96;98997.53;8374709;28;20086;-63
2021/12/04 23:55:25;;;;;;;8.85;1.80;;;;;;;6.82;95.23;98991.84;8356500;28;20036;-63
